<?xml version="1.0" encoding="UTF-8" standalone="no" ?>
<gpx xmlns="http://www.topografix.com/GPX/1/1" xmlns:xsi="http://www.w3.org/2001/XMLSchema-instance" xsi:schemaLocation="http://www.topografix.com/GPX/1/1 http://www.topografix.com/GPX/1/1/gpx.xsd" version="1.1" creator="VisuGPX - https://www.visugpx.com">
  <metadata>
    <name>038_Circuit 45 km Les Herbiers_Les Herbiers édité par cth85.com</name>
    <desc><![CDATA[Circuit de 58 km passant par:
Les Herbiers
D23 Bazoges en Paillers
D37 Les Landes Genusson
D37 Tiffauges
D9, D755 Les Herbiers]]></desc>
  </metadata>
  <trk>
    <name><![CDATA[45_038_cth85.com]]></name>
    <extensions>
      <line xmlns="http://www.topografix.com/GPX/gpx_style/0/2">
        <color>0000FF</color>
        <width>4</width>
      </line>
    </extensions>
    <trkseg>
      <trkpt lat="46.86436" lon="-1.00556">
        <ele>118.3</ele>
        <time>2025-01-17T14:06:04.000Z</time>
      </trkpt>
      <trkpt lat="46.86462" lon="-1.00555">
        <ele>117.4</ele>
        <time>2025-01-17T14:06:07.281Z</time>
      </trkpt>
      <trkpt lat="46.86488" lon="-1.00561">
        <ele>117.4</ele>
        <time>2025-01-17T14:06:11.735Z</time>
      </trkpt>
      <trkpt lat="46.86523" lon="-1.00577">
        <ele>114.8</ele>
        <time>2025-01-17T14:06:15.459Z</time>
      </trkpt>
      <trkpt lat="46.86556" lon="-1.00597">
        <ele>114.5</ele>
        <time>2025-01-17T14:06:21.052Z</time>
      </trkpt>
      <trkpt lat="46.86573" lon="-1.00609">
        <ele>113.7</ele>
        <time>2025-01-17T14:06:23.301Z</time>
      </trkpt>
      <trkpt lat="46.86595" lon="-1.00621">
        <ele>112.8</ele>
        <time>2025-01-17T14:06:26.182Z</time>
      </trkpt>
      <trkpt lat="46.86664" lon="-1.00646">
        <ele>111</ele>
        <time>2025-01-17T14:06:35.820Z</time>
      </trkpt>
      <trkpt lat="46.86708" lon="-1.0066">
        <ele>110</ele>
        <time>2025-01-17T14:06:42.082Z</time>
      </trkpt>
      <trkpt lat="46.86712" lon="-1.00666">
        <ele>110</ele>
        <time>2025-01-17T14:06:43.051Z</time>
      </trkpt>
      <trkpt lat="46.86714" lon="-1.00674">
        <ele>110</ele>
        <time>2025-01-17T14:06:44.037Z</time>
      </trkpt>
      <trkpt lat="46.86765" lon="-1.00654">
        <ele>110</ele>
        <time>2025-01-17T14:06:52.973Z</time>
      </trkpt>
      <trkpt lat="46.86836" lon="-1.00634">
        <ele>111.2</ele>
        <time>2025-01-17T14:07:07.427Z</time>
      </trkpt>
      <trkpt lat="46.86853" lon="-1.00633">
        <ele>111.2</ele>
        <time>2025-01-17T14:07:10.307Z</time>
      </trkpt>
      <trkpt lat="46.86947" lon="-1.00665">
        <ele>108.7</ele>
        <time>2025-01-17T14:07:23.331Z</time>
      </trkpt>
      <trkpt lat="46.86962" lon="-1.00754">
        <ele>107.3</ele>
        <time>2025-01-17T14:07:32.036Z</time>
      </trkpt>
      <trkpt lat="46.86983" lon="-1.00859">
        <ele>104.6</ele>
        <time>2025-01-17T14:07:41.365Z</time>
      </trkpt>
      <trkpt lat="46.86999" lon="-1.00914">
        <ele>103.1</ele>
        <time>2025-01-17T14:07:46.439Z</time>
      </trkpt>
      <trkpt lat="46.86998" lon="-1.00924">
        <ele>103</ele>
        <time>2025-01-17T14:07:47.464Z</time>
      </trkpt>
      <trkpt lat="46.87003" lon="-1.00927">
        <ele>103</ele>
        <time>2025-01-17T14:07:48.379Z</time>
      </trkpt>
      <trkpt lat="46.87001" lon="-1.00935">
        <ele>103</ele>
        <time>2025-01-17T14:07:49.365Z</time>
      </trkpt>
      <trkpt lat="46.87006" lon="-1.00942">
        <ele>102.8</ele>
        <time>2025-01-17T14:07:50.277Z</time>
      </trkpt>
      <trkpt lat="46.8701" lon="-1.00954">
        <ele>102.5</ele>
        <time>2025-01-17T14:07:51.443Z</time>
      </trkpt>
      <trkpt lat="46.87039" lon="-1.01059">
        <ele>102.1</ele>
        <time>2025-01-17T14:08:03.928Z</time>
      </trkpt>
      <trkpt lat="46.87066" lon="-1.01141">
        <ele>102</ele>
        <time>2025-01-17T14:08:14.299Z</time>
      </trkpt>
      <trkpt lat="46.87114" lon="-1.01307">
        <ele>106.1</ele>
        <time>2025-01-17T14:08:43.953Z</time>
      </trkpt>
      <trkpt lat="46.87116" lon="-1.01319">
        <ele>106.2</ele>
        <time>2025-01-17T14:08:45.560Z</time>
      </trkpt>
      <trkpt lat="46.87143" lon="-1.01312">
        <ele>107</ele>
        <time>2025-01-17T14:08:51.854Z</time>
      </trkpt>
      <trkpt lat="46.87184" lon="-1.01308">
        <ele>107.1</ele>
        <time>2025-01-17T14:08:58.972Z</time>
      </trkpt>
      <trkpt lat="46.87216" lon="-1.013">
        <ele>107</ele>
        <time>2025-01-17T14:09:04.309Z</time>
      </trkpt>
      <trkpt lat="46.87274" lon="-1.01275">
        <ele>107.9</ele>
        <time>2025-01-17T14:09:16.181Z</time>
      </trkpt>
      <trkpt lat="46.87283" lon="-1.01273">
        <ele>108.2</ele>
        <time>2025-01-17T14:09:18.364Z</time>
      </trkpt>
      <trkpt lat="46.87302" lon="-1.01285">
        <ele>108.9</ele>
        <time>2025-01-17T14:09:23.377Z</time>
      </trkpt>
      <trkpt lat="46.87305" lon="-1.01295">
        <ele>109</ele>
        <time>2025-01-17T14:09:24.820Z</time>
      </trkpt>
      <trkpt lat="46.87324" lon="-1.01392">
        <ele>112.7</ele>
        <time>2025-01-17T14:09:46.158Z</time>
      </trkpt>
      <trkpt lat="46.87329" lon="-1.01395">
        <ele>112.9</ele>
        <time>2025-01-17T14:09:47.518Z</time>
      </trkpt>
      <trkpt lat="46.87326" lon="-1.01402">
        <ele>112.9</ele>
        <time>2025-01-17T14:09:48.474Z</time>
      </trkpt>
      <trkpt lat="46.87342" lon="-1.01482">
        <ele>114.2</ele>
        <time>2025-01-17T14:10:00.654Z</time>
      </trkpt>
      <trkpt lat="46.87328" lon="-1.01492">
        <ele>114</ele>
        <time>2025-01-17T14:10:02.999Z</time>
      </trkpt>
      <trkpt lat="46.87317" lon="-1.01498">
        <ele>114</ele>
        <time>2025-01-17T14:10:04.986Z</time>
      </trkpt>
      <trkpt lat="46.87283" lon="-1.0151">
        <ele>113.2</ele>
        <time>2025-01-17T14:10:09.824Z</time>
      </trkpt>
      <trkpt lat="46.87195" lon="-1.01534">
        <ele>111</ele>
        <time>2025-01-17T14:10:22.034Z</time>
      </trkpt>
      <trkpt lat="46.87153" lon="-1.01536">
        <ele>108.8</ele>
        <time>2025-01-17T14:10:26.707Z</time>
      </trkpt>
      <trkpt lat="46.87106" lon="-1.01535">
        <ele>106.4</ele>
        <time>2025-01-17T14:10:31.980Z</time>
      </trkpt>
      <trkpt lat="46.87084" lon="-1.01655">
        <ele>108</ele>
        <time>2025-01-17T14:10:49.369Z</time>
      </trkpt>
      <trkpt lat="46.87077" lon="-1.017">
        <ele>108.8</ele>
        <time>2025-01-17T14:10:56.306Z</time>
      </trkpt>
      <trkpt lat="46.87082" lon="-1.01704">
        <ele>109</ele>
        <time>2025-01-17T14:10:57.707Z</time>
      </trkpt>
      <trkpt lat="46.87127" lon="-1.01735">
        <ele>111.5</ele>
        <time>2025-01-17T14:11:12.441Z</time>
      </trkpt>
      <trkpt lat="46.87196" lon="-1.01787">
        <ele>112.7</ele>
        <time>2025-01-17T14:11:27.773Z</time>
      </trkpt>
      <trkpt lat="46.87229" lon="-1.01811">
        <ele>112</ele>
        <time>2025-01-17T14:11:33.036Z</time>
      </trkpt>
      <trkpt lat="46.87253" lon="-1.01916">
        <ele>110</ele>
        <time>2025-01-17T14:11:43.208Z</time>
      </trkpt>
      <trkpt lat="46.87264" lon="-1.01959">
        <ele>109.7</ele>
        <time>2025-01-17T14:11:48.072Z</time>
      </trkpt>
      <trkpt lat="46.87287" lon="-1.02016">
        <ele>109</ele>
        <time>2025-01-17T14:11:54.730Z</time>
      </trkpt>
      <trkpt lat="46.87312" lon="-1.02078">
        <ele>108</ele>
        <time>2025-01-17T14:12:01.680Z</time>
      </trkpt>
      <trkpt lat="46.87351" lon="-1.02178">
        <ele>107.4</ele>
        <time>2025-01-17T14:12:14.091Z</time>
      </trkpt>
      <trkpt lat="46.87373" lon="-1.02221">
        <ele>106.6</ele>
        <time>2025-01-17T14:12:19.214Z</time>
      </trkpt>
      <trkpt lat="46.87411" lon="-1.02267">
        <ele>105.5</ele>
        <time>2025-01-17T14:12:26.068Z</time>
      </trkpt>
      <trkpt lat="46.87447" lon="-1.02304">
        <ele>105.1</ele>
        <time>2025-01-17T14:12:32.914Z</time>
      </trkpt>
      <trkpt lat="46.87463" lon="-1.02326">
        <ele>105.7</ele>
        <time>2025-01-17T14:12:37.850Z</time>
      </trkpt>
      <trkpt lat="46.8748" lon="-1.02369">
        <ele>106.6</ele>
        <time>2025-01-17T14:12:45.412Z</time>
      </trkpt>
      <trkpt lat="46.87501" lon="-1.02429">
        <ele>107</ele>
        <time>2025-01-17T14:12:53.902Z</time>
      </trkpt>
      <trkpt lat="46.87516" lon="-1.02439">
        <ele>107</ele>
        <time>2025-01-17T14:12:56.691Z</time>
      </trkpt>
      <trkpt lat="46.8753" lon="-1.02449">
        <ele>106.8</ele>
        <time>2025-01-17T14:12:59.037Z</time>
      </trkpt>
      <trkpt lat="46.87535" lon="-1.02466">
        <ele>106.2</ele>
        <time>2025-01-17T14:13:00.491Z</time>
      </trkpt>
      <trkpt lat="46.87537" lon="-1.02488">
        <ele>106</ele>
        <time>2025-01-17T14:13:02.769Z</time>
      </trkpt>
      <trkpt lat="46.87544" lon="-1.02527">
        <ele>105.6</ele>
        <time>2025-01-17T14:13:06.858Z</time>
      </trkpt>
      <trkpt lat="46.87567" lon="-1.02605">
        <ele>104.5</ele>
        <time>2025-01-17T14:13:15.155Z</time>
      </trkpt>
      <trkpt lat="46.87596" lon="-1.02658">
        <ele>105.8</ele>
        <time>2025-01-17T14:13:25.667Z</time>
      </trkpt>
      <trkpt lat="46.87604" lon="-1.02667">
        <ele>106.2</ele>
        <time>2025-01-17T14:13:28.287Z</time>
      </trkpt>
      <trkpt lat="46.8761" lon="-1.02669">
        <ele>106.9</ele>
        <time>2025-01-17T14:13:32.345Z</time>
      </trkpt>
      <trkpt lat="46.87613" lon="-1.02673">
        <ele>107.3</ele>
        <time>2025-01-17T14:13:34.624Z</time>
      </trkpt>
      <trkpt lat="46.87614" lon="-1.02683">
        <ele>107.4</ele>
        <time>2025-01-17T14:13:35.975Z</time>
      </trkpt>
      <trkpt lat="46.87628" lon="-1.02715">
        <ele>109.3</ele>
        <time>2025-01-17T14:13:46.401Z</time>
      </trkpt>
      <trkpt lat="46.87673" lon="-1.02803">
        <ele>111.7</ele>
        <time>2025-01-17T14:14:04.204Z</time>
      </trkpt>
      <trkpt lat="46.87689" lon="-1.0283">
        <ele>112.7</ele>
        <time>2025-01-17T14:14:10.645Z</time>
      </trkpt>
      <trkpt lat="46.87732" lon="-1.02894">
        <ele>115.2</ele>
        <time>2025-01-17T14:14:26.785Z</time>
      </trkpt>
      <trkpt lat="46.87793" lon="-1.02969">
        <ele>116.6</ele>
        <time>2025-01-17T14:14:42.880Z</time>
      </trkpt>
      <trkpt lat="46.87835" lon="-1.03021">
        <ele>115.2</ele>
        <time>2025-01-17T14:14:50.333Z</time>
      </trkpt>
      <trkpt lat="46.8786" lon="-1.03057">
        <ele>114</ele>
        <time>2025-01-17T14:14:54.770Z</time>
      </trkpt>
      <trkpt lat="46.87894" lon="-1.03122">
        <ele>113</ele>
        <time>2025-01-17T14:15:02.836Z</time>
      </trkpt>
      <trkpt lat="46.87921" lon="-1.03171">
        <ele>112.1</ele>
        <time>2025-01-17T14:15:08.883Z</time>
      </trkpt>
      <trkpt lat="46.87968" lon="-1.03243">
        <ele>110.5</ele>
        <time>2025-01-17T14:15:18.245Z</time>
      </trkpt>
      <trkpt lat="46.87996" lon="-1.03275">
        <ele>110.1</ele>
        <time>2025-01-17T14:15:23.669Z</time>
      </trkpt>
      <trkpt lat="46.8801" lon="-1.03287">
        <ele>109.5</ele>
        <time>2025-01-17T14:15:25.680Z</time>
      </trkpt>
      <trkpt lat="46.8802" lon="-1.03287">
        <ele>109.4</ele>
        <time>2025-01-17T14:15:27.223Z</time>
      </trkpt>
      <trkpt lat="46.88034" lon="-1.03289">
        <ele>109.3</ele>
        <time>2025-01-17T14:15:29.452Z</time>
      </trkpt>
      <trkpt lat="46.88043" lon="-1.03295">
        <ele>109.3</ele>
        <time>2025-01-17T14:15:31.126Z</time>
      </trkpt>
      <trkpt lat="46.8805" lon="-1.0331">
        <ele>109.2</ele>
        <time>2025-01-17T14:15:33.076Z</time>
      </trkpt>
      <trkpt lat="46.88053" lon="-1.03325">
        <ele>109.2</ele>
        <time>2025-01-17T14:15:34.883Z</time>
      </trkpt>
      <trkpt lat="46.88052" lon="-1.03342">
        <ele>109.2</ele>
        <time>2025-01-17T14:15:36.857Z</time>
      </trkpt>
      <trkpt lat="46.8806" lon="-1.03358">
        <ele>109</ele>
        <time>2025-01-17T14:15:38.863Z</time>
      </trkpt>
      <trkpt lat="46.88079" lon="-1.0338">
        <ele>109</ele>
        <time>2025-01-17T14:15:42.964Z</time>
      </trkpt>
      <trkpt lat="46.88101" lon="-1.034">
        <ele>109</ele>
        <time>2025-01-17T14:15:47.348Z</time>
      </trkpt>
      <trkpt lat="46.88151" lon="-1.03436">
        <ele>108.4</ele>
        <time>2025-01-17T14:15:55.891Z</time>
      </trkpt>
      <trkpt lat="46.88213" lon="-1.03481">
        <ele>108.1</ele>
        <time>2025-01-17T14:16:07.138Z</time>
      </trkpt>
      <trkpt lat="46.88266" lon="-1.03527">
        <ele>107</ele>
        <time>2025-01-17T14:16:16.024Z</time>
      </trkpt>
      <trkpt lat="46.88307" lon="-1.03566">
        <ele>107.4</ele>
        <time>2025-01-17T14:16:24.988Z</time>
      </trkpt>
      <trkpt lat="46.8837" lon="-1.03633">
        <ele>108.5</ele>
        <time>2025-01-17T14:16:40.159Z</time>
      </trkpt>
      <trkpt lat="46.8844" lon="-1.03703">
        <ele>109</ele>
        <time>2025-01-17T14:16:55.353Z</time>
      </trkpt>
      <trkpt lat="46.88526" lon="-1.0379">
        <ele>108.6</ele>
        <time>2025-01-17T14:17:12.423Z</time>
      </trkpt>
      <trkpt lat="46.88627" lon="-1.03893">
        <ele>107.5</ele>
        <time>2025-01-17T14:17:31.608Z</time>
      </trkpt>
      <trkpt lat="46.88691" lon="-1.0396">
        <ele>106.9</ele>
        <time>2025-01-17T14:17:44.017Z</time>
      </trkpt>
      <trkpt lat="46.88709" lon="-1.03975">
        <ele>106.9</ele>
        <time>2025-01-17T14:17:47.523Z</time>
      </trkpt>
      <trkpt lat="46.88719" lon="-1.03977">
        <ele>107.1</ele>
        <time>2025-01-17T14:17:49.611Z</time>
      </trkpt>
      <trkpt lat="46.88732" lon="-1.03969">
        <ele>106.8</ele>
        <time>2025-01-17T14:17:51.587Z</time>
      </trkpt>
      <trkpt lat="46.88742" lon="-1.03974">
        <ele>107</ele>
        <time>2025-01-17T14:17:53.753Z</time>
      </trkpt>
      <trkpt lat="46.8875" lon="-1.03989">
        <ele>107</ele>
        <time>2025-01-17T14:17:55.954Z</time>
      </trkpt>
      <trkpt lat="46.88748" lon="-1.04009">
        <ele>107</ele>
        <time>2025-01-17T14:17:58.292Z</time>
      </trkpt>
      <trkpt lat="46.88745" lon="-1.04028">
        <ele>107</ele>
        <time>2025-01-17T14:18:00.547Z</time>
      </trkpt>
      <trkpt lat="46.88749" lon="-1.04047">
        <ele>107</ele>
        <time>2025-01-17T14:18:02.847Z</time>
      </trkpt>
      <trkpt lat="46.88766" lon="-1.04092">
        <ele>107.3</ele>
        <time>2025-01-17T14:18:09.311Z</time>
      </trkpt>
      <trkpt lat="46.888" lon="-1.042">
        <ele>107.4</ele>
        <time>2025-01-17T14:18:23.227Z</time>
      </trkpt>
      <trkpt lat="46.88885" lon="-1.04463">
        <ele>103.9</ele>
        <time>2025-01-17T14:18:51.957Z</time>
      </trkpt>
      <trkpt lat="46.88933" lon="-1.04612">
        <ele>104.6</ele>
        <time>2025-01-17T14:19:12.194Z</time>
      </trkpt>
      <trkpt lat="46.88948" lon="-1.04657">
        <ele>105</ele>
        <time>2025-01-17T14:19:18.693Z</time>
      </trkpt>
      <trkpt lat="46.88967" lon="-1.04696">
        <ele>104</ele>
        <time>2025-01-17T14:19:22.952Z</time>
      </trkpt>
      <trkpt lat="46.89026" lon="-1.04782">
        <ele>103.9</ele>
        <time>2025-01-17T14:19:36.886Z</time>
      </trkpt>
      <trkpt lat="46.8911" lon="-1.04901">
        <ele>103</ele>
        <time>2025-01-17T14:19:55.310Z</time>
      </trkpt>
      <trkpt lat="46.8915" lon="-1.04961">
        <ele>104</ele>
        <time>2025-01-17T14:20:06.866Z</time>
      </trkpt>
      <trkpt lat="46.89176" lon="-1.0501">
        <ele>105</ele>
        <time>2025-01-17T14:20:16.006Z</time>
      </trkpt>
      <trkpt lat="46.8923" lon="-1.05129">
        <ele>104</ele>
        <time>2025-01-17T14:20:31.041Z</time>
      </trkpt>
      <trkpt lat="46.89301" lon="-1.05286">
        <ele>102.8</ele>
        <time>2025-01-17T14:20:51.020Z</time>
      </trkpt>
      <trkpt lat="46.89337" lon="-1.05369">
        <ele>104.1</ele>
        <time>2025-01-17T14:21:04.850Z</time>
      </trkpt>
      <trkpt lat="46.89373" lon="-1.05475">
        <ele>104.5</ele>
        <time>2025-01-17T14:21:19.209Z</time>
      </trkpt>
      <trkpt lat="46.89407" lon="-1.05572">
        <ele>103.3</ele>
        <time>2025-01-17T14:21:30.112Z</time>
      </trkpt>
      <trkpt lat="46.89443" lon="-1.05675">
        <ele>102</ele>
        <time>2025-01-17T14:21:41.648Z</time>
      </trkpt>
      <trkpt lat="46.89479" lon="-1.05779">
        <ele>101</ele>
        <time>2025-01-17T14:21:53.671Z</time>
      </trkpt>
      <trkpt lat="46.89523" lon="-1.05907">
        <ele>100</ele>
        <time>2025-01-17T14:22:08.756Z</time>
      </trkpt>
      <trkpt lat="46.89569" lon="-1.0604">
        <ele>96.8</ele>
        <time>2025-01-17T14:22:21.920Z</time>
      </trkpt>
      <trkpt lat="46.89604" lon="-1.06139">
        <ele>95</ele>
        <time>2025-01-17T14:22:32.390Z</time>
      </trkpt>
      <trkpt lat="46.89663" lon="-1.06313">
        <ele>92.8</ele>
        <time>2025-01-17T14:22:51.737Z</time>
      </trkpt>
      <trkpt lat="46.89702" lon="-1.06417">
        <ele>89.7</ele>
        <time>2025-01-17T14:23:01.689Z</time>
      </trkpt>
      <trkpt lat="46.89728" lon="-1.0647">
        <ele>89.7</ele>
        <time>2025-01-17T14:23:09.234Z</time>
      </trkpt>
      <trkpt lat="46.8978" lon="-1.06549">
        <ele>90.8</ele>
        <time>2025-01-17T14:23:23.918Z</time>
      </trkpt>
      <trkpt lat="46.89845" lon="-1.06653">
        <ele>94.4</ele>
        <time>2025-01-17T14:23:48.247Z</time>
      </trkpt>
      <trkpt lat="46.89943" lon="-1.06802">
        <ele>95.9</ele>
        <time>2025-01-17T14:24:14.797Z</time>
      </trkpt>
      <trkpt lat="46.90028" lon="-1.06914">
        <ele>98</ele>
        <time>2025-01-17T14:24:38.094Z</time>
      </trkpt>
      <trkpt lat="46.90095" lon="-1.06991">
        <ele>100</ele>
        <time>2025-01-17T14:24:56.437Z</time>
      </trkpt>
      <trkpt lat="46.90123" lon="-1.07027">
        <ele>100.4</ele>
        <time>2025-01-17T14:25:03.448Z</time>
      </trkpt>
      <trkpt lat="46.9015" lon="-1.07072">
        <ele>101</ele>
        <time>2025-01-17T14:25:11.463Z</time>
      </trkpt>
      <trkpt lat="46.90167" lon="-1.07105">
        <ele>101.8</ele>
        <time>2025-01-17T14:25:17.883Z</time>
      </trkpt>
      <trkpt lat="46.90186" lon="-1.07169">
        <ele>102</ele>
        <time>2025-01-17T14:25:26.285Z</time>
      </trkpt>
      <trkpt lat="46.90199" lon="-1.0723">
        <ele>102.1</ele>
        <time>2025-01-17T14:25:33.837Z</time>
      </trkpt>
      <trkpt lat="46.90216" lon="-1.07261">
        <ele>102.3</ele>
        <time>2025-01-17T14:25:38.775Z</time>
      </trkpt>
      <trkpt lat="46.9023" lon="-1.07263">
        <ele>102.3</ele>
        <time>2025-01-17T14:25:41.156Z</time>
      </trkpt>
      <trkpt lat="46.90243" lon="-1.07284">
        <ele>102.3</ele>
        <time>2025-01-17T14:25:44.433Z</time>
      </trkpt>
      <trkpt lat="46.90245" lon="-1.07303">
        <ele>102.3</ele>
        <time>2025-01-17T14:25:46.656Z</time>
      </trkpt>
      <trkpt lat="46.90241" lon="-1.07322">
        <ele>102.3</ele>
        <time>2025-01-17T14:25:48.955Z</time>
      </trkpt>
      <trkpt lat="46.90233" lon="-1.07334">
        <ele>102</ele>
        <time>2025-01-17T14:25:50.497Z</time>
      </trkpt>
      <trkpt lat="46.90236" lon="-1.07364">
        <ele>101.5</ele>
        <time>2025-01-17T14:25:53.333Z</time>
      </trkpt>
      <trkpt lat="46.9025" lon="-1.07416">
        <ele>101</ele>
        <time>2025-01-17T14:25:59.069Z</time>
      </trkpt>
      <trkpt lat="46.90285" lon="-1.07601">
        <ele>99</ele>
        <time>2025-01-17T14:26:18.405Z</time>
      </trkpt>
      <trkpt lat="46.90325" lon="-1.07842">
        <ele>96.2</ele>
        <time>2025-01-17T14:26:43.115Z</time>
      </trkpt>
      <trkpt lat="46.90358" lon="-1.0805">
        <ele>94</ele>
        <time>2025-01-17T14:27:04.656Z</time>
      </trkpt>
      <trkpt lat="46.90368" lon="-1.08102">
        <ele>94.5</ele>
        <time>2025-01-17T14:27:11.802Z</time>
      </trkpt>
      <trkpt lat="46.90375" lon="-1.08172">
        <ele>94</ele>
        <time>2025-01-17T14:27:19.240Z</time>
      </trkpt>
      <trkpt lat="46.90377" lon="-1.08235">
        <ele>93.8</ele>
        <time>2025-01-17T14:27:26.222Z</time>
      </trkpt>
      <trkpt lat="46.90378" lon="-1.08295">
        <ele>93.6</ele>
        <time>2025-01-17T14:27:32.853Z</time>
      </trkpt>
      <trkpt lat="46.90378" lon="-1.08353">
        <ele>92.1</ele>
        <time>2025-01-17T14:27:37.731Z</time>
      </trkpt>
      <trkpt lat="46.90385" lon="-1.08608">
        <ele>90.9</ele>
        <time>2025-01-17T14:28:05.411Z</time>
      </trkpt>
      <trkpt lat="46.90394" lon="-1.08842">
        <ele>90.3</ele>
        <time>2025-01-17T14:28:31.574Z</time>
      </trkpt>
      <trkpt lat="46.90399" lon="-1.08996">
        <ele>89.4</ele>
        <time>2025-01-17T14:28:48.046Z</time>
      </trkpt>
      <trkpt lat="46.90402" lon="-1.09105">
        <ele>88.7</ele>
        <time>2025-01-17T14:28:59.614Z</time>
      </trkpt>
      <trkpt lat="46.90405" lon="-1.09209">
        <ele>88.1</ele>
        <time>2025-01-17T14:29:10.746Z</time>
      </trkpt>
      <trkpt lat="46.90409" lon="-1.09295">
        <ele>88.6</ele>
        <time>2025-01-17T14:29:21.575Z</time>
      </trkpt>
      <trkpt lat="46.90415" lon="-1.09318">
        <ele>88</ele>
        <time>2025-01-17T14:29:23.680Z</time>
      </trkpt>
      <trkpt lat="46.90422" lon="-1.09334">
        <ele>88</ele>
        <time>2025-01-17T14:29:25.877Z</time>
      </trkpt>
      <trkpt lat="46.90426" lon="-1.09346">
        <ele>88</ele>
        <time>2025-01-17T14:29:27.421Z</time>
      </trkpt>
      <trkpt lat="46.9042" lon="-1.09363">
        <ele>88</ele>
        <time>2025-01-17T14:29:29.633Z</time>
      </trkpt>
      <trkpt lat="46.90414" lon="-1.09377">
        <ele>87.9</ele>
        <time>2025-01-17T14:29:31.394Z</time>
      </trkpt>
      <trkpt lat="46.90412" lon="-1.0943">
        <ele>87.8</ele>
        <time>2025-01-17T14:29:37.374Z</time>
      </trkpt>
      <trkpt lat="46.90415" lon="-1.09522">
        <ele>87</ele>
        <time>2025-01-17T14:29:46.858Z</time>
      </trkpt>
      <trkpt lat="46.90419" lon="-1.09595">
        <ele>86.8</ele>
        <time>2025-01-17T14:29:55.014Z</time>
      </trkpt>
      <trkpt lat="46.90427" lon="-1.09659">
        <ele>85.3</ele>
        <time>2025-01-17T14:30:00.658Z</time>
      </trkpt>
      <trkpt lat="46.90447" lon="-1.09739">
        <ele>85.9</ele>
        <time>2025-01-17T14:30:11.558Z</time>
      </trkpt>
      <trkpt lat="46.90473" lon="-1.0981">
        <ele>87.8</ele>
        <time>2025-01-17T14:30:24.999Z</time>
      </trkpt>
      <trkpt lat="46.90507" lon="-1.09876">
        <ele>87.7</ele>
        <time>2025-01-17T14:30:34.398Z</time>
      </trkpt>
      <trkpt lat="46.90544" lon="-1.09929">
        <ele>88.1</ele>
        <time>2025-01-17T14:30:43.845Z</time>
      </trkpt>
      <trkpt lat="46.9059" lon="-1.09977">
        <ele>88.7</ele>
        <time>2025-01-17T14:30:54.459Z</time>
      </trkpt>
      <trkpt lat="46.90652" lon="-1.10019">
        <ele>88.9</ele>
        <time>2025-01-17T14:31:06.351Z</time>
      </trkpt>
      <trkpt lat="46.90681" lon="-1.10033">
        <ele>89.6</ele>
        <time>2025-01-17T14:31:12.886Z</time>
      </trkpt>
      <trkpt lat="46.90723" lon="-1.10047">
        <ele>90.7</ele>
        <time>2025-01-17T14:31:22.376Z</time>
      </trkpt>
      <trkpt lat="46.90761" lon="-1.10051">
        <ele>91.8</ele>
        <time>2025-01-17T14:31:31.091Z</time>
      </trkpt>
      <trkpt lat="46.90791" lon="-1.10055">
        <ele>93.5</ele>
        <time>2025-01-17T14:31:40.755Z</time>
      </trkpt>
      <trkpt lat="46.90838" lon="-1.10059">
        <ele>94.2</ele>
        <time>2025-01-17T14:31:49.997Z</time>
      </trkpt>
      <trkpt lat="46.90856" lon="-1.10056">
        <ele>94.8</ele>
        <time>2025-01-17T14:31:54.349Z</time>
      </trkpt>
      <trkpt lat="46.90867" lon="-1.10047">
        <ele>94.8</ele>
        <time>2025-01-17T14:31:56.481Z</time>
      </trkpt>
      <trkpt lat="46.90879" lon="-1.10046">
        <ele>94.9</ele>
        <time>2025-01-17T14:31:58.688Z</time>
      </trkpt>
      <trkpt lat="46.90887" lon="-1.10054">
        <ele>95</ele>
        <time>2025-01-17T14:32:00.503Z</time>
      </trkpt>
      <trkpt lat="46.90889" lon="-1.10067">
        <ele>95</ele>
        <time>2025-01-17T14:32:02.043Z</time>
      </trkpt>
      <trkpt lat="46.90886" lon="-1.10077">
        <ele>95</ele>
        <time>2025-01-17T14:32:03.306Z</time>
      </trkpt>
      <trkpt lat="46.90881" lon="-1.10085">
        <ele>95.1</ele>
        <time>2025-01-17T14:32:04.740Z</time>
      </trkpt>
      <trkpt lat="46.90872" lon="-1.10105">
        <ele>95.8</ele>
        <time>2025-01-17T14:32:09.153Z</time>
      </trkpt>
      <trkpt lat="46.90867" lon="-1.1013">
        <ele>96</ele>
        <time>2025-01-17T14:32:12.517Z</time>
      </trkpt>
      <trkpt lat="46.90858" lon="-1.10197">
        <ele>96.1</ele>
        <time>2025-01-17T14:32:20.576Z</time>
      </trkpt>
      <trkpt lat="46.90845" lon="-1.10303">
        <ele>98</ele>
        <time>2025-01-17T14:32:36.837Z</time>
      </trkpt>
      <trkpt lat="46.90814" lon="-1.10564">
        <ele>96.1</ele>
        <time>2025-01-17T14:33:04.649Z</time>
      </trkpt>
      <trkpt lat="46.90795" lon="-1.10729">
        <ele>95.6</ele>
        <time>2025-01-17T14:33:23.218Z</time>
      </trkpt>
      <trkpt lat="46.90775" lon="-1.10903">
        <ele>94</ele>
        <time>2025-01-17T14:33:41.296Z</time>
      </trkpt>
      <trkpt lat="46.90754" lon="-1.11089">
        <ele>92</ele>
        <time>2025-01-17T14:34:00.239Z</time>
      </trkpt>
      <trkpt lat="46.90742" lon="-1.11255">
        <ele>90.5</ele>
        <time>2025-01-17T14:34:17.360Z</time>
      </trkpt>
      <trkpt lat="46.90731" lon="-1.11403">
        <ele>87.2</ele>
        <time>2025-01-17T14:34:30.400Z</time>
      </trkpt>
      <trkpt lat="46.90716" lon="-1.11625">
        <ele>82.6</ele>
        <time>2025-01-17T14:34:50.286Z</time>
      </trkpt>
      <trkpt lat="46.90699" lon="-1.11876">
        <ele>78.9</ele>
        <time>2025-01-17T14:35:14.394Z</time>
      </trkpt>
      <trkpt lat="46.90681" lon="-1.12132">
        <ele>77.5</ele>
        <time>2025-01-17T14:35:42.033Z</time>
      </trkpt>
      <trkpt lat="46.90664" lon="-1.12377">
        <ele>79.1</ele>
        <time>2025-01-17T14:36:13.290Z</time>
      </trkpt>
      <trkpt lat="46.90646" lon="-1.12627">
        <ele>84.7</ele>
        <time>2025-01-17T14:36:54.301Z</time>
      </trkpt>
      <trkpt lat="46.9063" lon="-1.12848">
        <ele>84</ele>
        <time>2025-01-17T14:37:18.911Z</time>
      </trkpt>
      <trkpt lat="46.90622" lon="-1.1294">
        <ele>81.2</ele>
        <time>2025-01-17T14:37:26.363Z</time>
      </trkpt>
      <trkpt lat="46.90618" lon="-1.13003">
        <ele>78.9</ele>
        <time>2025-01-17T14:37:31.143Z</time>
      </trkpt>
      <trkpt lat="46.90619" lon="-1.13054">
        <ele>77.2</ele>
        <time>2025-01-17T14:37:35.115Z</time>
      </trkpt>
      <trkpt lat="46.90623" lon="-1.13072">
        <ele>75.7</ele>
        <time>2025-01-17T14:37:36.428Z</time>
      </trkpt>
      <trkpt lat="46.90633" lon="-1.131">
        <ele>76.1</ele>
        <time>2025-01-17T14:37:40.832Z</time>
      </trkpt>
      <trkpt lat="46.90666" lon="-1.13167">
        <ele>80</ele>
        <time>2025-01-17T14:38:02.275Z</time>
      </trkpt>
      <trkpt lat="46.9071" lon="-1.13239">
        <ele>83.9</ele>
        <time>2025-01-17T14:38:24.200Z</time>
      </trkpt>
      <trkpt lat="46.90736" lon="-1.13289">
        <ele>85.7</ele>
        <time>2025-01-17T14:38:35.659Z</time>
      </trkpt>
      <trkpt lat="46.90756" lon="-1.1333">
        <ele>87.1</ele>
        <time>2025-01-17T14:38:44.706Z</time>
      </trkpt>
      <trkpt lat="46.90765" lon="-1.13355">
        <ele>87.5</ele>
        <time>2025-01-17T14:38:48.740Z</time>
      </trkpt>
      <trkpt lat="46.90773" lon="-1.13383">
        <ele>87.8</ele>
        <time>2025-01-17T14:38:52.793Z</time>
      </trkpt>
      <trkpt lat="46.90778" lon="-1.13414">
        <ele>88</ele>
        <time>2025-01-17T14:38:56.823Z</time>
      </trkpt>
      <trkpt lat="46.90852" lon="-1.13386">
        <ele>87.3</ele>
        <time>2025-01-17T14:39:08.710Z</time>
      </trkpt>
      <trkpt lat="46.90951" lon="-1.13328">
        <ele>84.8</ele>
        <time>2025-01-17T14:39:23.389Z</time>
      </trkpt>
      <trkpt lat="46.90988" lon="-1.13308">
        <ele>84</ele>
        <time>2025-01-17T14:39:28.962Z</time>
      </trkpt>
      <trkpt lat="46.91025" lon="-1.13301">
        <ele>83.1</ele>
        <time>2025-01-17T14:39:34.069Z</time>
      </trkpt>
      <trkpt lat="46.91052" lon="-1.133">
        <ele>83</ele>
        <time>2025-01-17T14:39:38.484Z</time>
      </trkpt>
      <trkpt lat="46.91067" lon="-1.13303">
        <ele>83</ele>
        <time>2025-01-17T14:39:41.046Z</time>
      </trkpt>
      <trkpt lat="46.91258" lon="-1.13359">
        <ele>80</ele>
        <time>2025-01-17T14:40:09.727Z</time>
      </trkpt>
      <trkpt lat="46.9132" lon="-1.13399">
        <ele>81.5</ele>
        <time>2025-01-17T14:40:24.103Z</time>
      </trkpt>
      <trkpt lat="46.91451" lon="-1.13489">
        <ele>83.5</ele>
        <time>2025-01-17T14:40:52.202Z</time>
      </trkpt>
      <trkpt lat="46.91469" lon="-1.13497">
        <ele>83.1</ele>
        <time>2025-01-17T14:40:54.838Z</time>
      </trkpt>
      <trkpt lat="46.91487" lon="-1.13501">
        <ele>83</ele>
        <time>2025-01-17T14:40:57.766Z</time>
      </trkpt>
      <trkpt lat="46.91522" lon="-1.13499">
        <ele>83.8</ele>
        <time>2025-01-17T14:41:05.255Z</time>
      </trkpt>
      <trkpt lat="46.91675" lon="-1.13455">
        <ele>85</ele>
        <time>2025-01-17T14:41:33.700Z</time>
      </trkpt>
      <trkpt lat="46.91727" lon="-1.13429">
        <ele>86</ele>
        <time>2025-01-17T14:41:44.873Z</time>
      </trkpt>
      <trkpt lat="46.9176" lon="-1.13405">
        <ele>86.2</ele>
        <time>2025-01-17T14:41:51.445Z</time>
      </trkpt>
      <trkpt lat="46.91789" lon="-1.1338">
        <ele>86.6</ele>
        <time>2025-01-17T14:41:57.851Z</time>
      </trkpt>
      <trkpt lat="46.91892" lon="-1.13288">
        <ele>89</ele>
        <time>2025-01-17T14:42:22.834Z</time>
      </trkpt>
      <trkpt lat="46.91918" lon="-1.13271">
        <ele>89</ele>
        <time>2025-01-17T14:42:27.654Z</time>
      </trkpt>
      <trkpt lat="46.92098" lon="-1.13171">
        <ele>86.9</ele>
        <time>2025-01-17T14:42:57.133Z</time>
      </trkpt>
      <trkpt lat="46.92119" lon="-1.13162">
        <ele>86.5</ele>
        <time>2025-01-17T14:43:00.276Z</time>
      </trkpt>
      <trkpt lat="46.92155" lon="-1.13153">
        <ele>85.2</ele>
        <time>2025-01-17T14:43:04.849Z</time>
      </trkpt>
      <trkpt lat="46.92228" lon="-1.13141">
        <ele>85.9</ele>
        <time>2025-01-17T14:43:18.499Z</time>
      </trkpt>
      <trkpt lat="46.92261" lon="-1.13139">
        <ele>86.4</ele>
        <time>2025-01-17T14:43:25.001Z</time>
      </trkpt>
      <trkpt lat="46.92279" lon="-1.13142">
        <ele>87</ele>
        <time>2025-01-17T14:43:29.353Z</time>
      </trkpt>
      <trkpt lat="46.92342" lon="-1.13164">
        <ele>87</ele>
        <time>2025-01-17T14:43:40.314Z</time>
      </trkpt>
      <trkpt lat="46.92501" lon="-1.13226">
        <ele>87</ele>
        <time>2025-01-17T14:44:08.161Z</time>
      </trkpt>
      <trkpt lat="46.9254" lon="-1.13237">
        <ele>87</ele>
        <time>2025-01-17T14:44:14.882Z</time>
      </trkpt>
      <trkpt lat="46.9257" lon="-1.1324">
        <ele>87</ele>
        <time>2025-01-17T14:44:19.972Z</time>
      </trkpt>
      <trkpt lat="46.92607" lon="-1.13238">
        <ele>86.6</ele>
        <time>2025-01-17T14:44:25.646Z</time>
      </trkpt>
      <trkpt lat="46.92626" lon="-1.13233">
        <ele>86.2</ele>
        <time>2025-01-17T14:44:28.364Z</time>
      </trkpt>
      <trkpt lat="46.92653" lon="-1.1322">
        <ele>86</ele>
        <time>2025-01-17T14:44:32.869Z</time>
      </trkpt>
      <trkpt lat="46.92675" lon="-1.13202">
        <ele>86</ele>
        <time>2025-01-17T14:44:37.134Z</time>
      </trkpt>
      <trkpt lat="46.92704" lon="-1.13175">
        <ele>86.3</ele>
        <time>2025-01-17T14:44:43.469Z</time>
      </trkpt>
      <trkpt lat="46.92724" lon="-1.13151">
        <ele>87</ele>
        <time>2025-01-17T14:44:49.264Z</time>
      </trkpt>
      <trkpt lat="46.92741" lon="-1.13124">
        <ele>87</ele>
        <time>2025-01-17T14:44:53.509Z</time>
      </trkpt>
      <trkpt lat="46.92813" lon="-1.12993">
        <ele>89</ele>
        <time>2025-01-17T14:45:16.666Z</time>
      </trkpt>
      <trkpt lat="46.92831" lon="-1.12968">
        <ele>89</ele>
        <time>2025-01-17T14:45:20.864Z</time>
      </trkpt>
      <trkpt lat="46.92856" lon="-1.1294">
        <ele>89.8</ele>
        <time>2025-01-17T14:45:27.789Z</time>
      </trkpt>
      <trkpt lat="46.92878" lon="-1.12924">
        <ele>90.4</ele>
        <time>2025-01-17T14:45:33.134Z</time>
      </trkpt>
      <trkpt lat="46.93097" lon="-1.12809">
        <ele>94</ele>
        <time>2025-01-17T14:46:19.097Z</time>
      </trkpt>
      <trkpt lat="46.93141" lon="-1.12789">
        <ele>94.1</ele>
        <time>2025-01-17T14:46:27.057Z</time>
      </trkpt>
      <trkpt lat="46.93175" lon="-1.12783">
        <ele>95</ele>
        <time>2025-01-17T14:46:34.665Z</time>
      </trkpt>
      <trkpt lat="46.93211" lon="-1.12784">
        <ele>95.5</ele>
        <time>2025-01-17T14:46:41.661Z</time>
      </trkpt>
      <trkpt lat="46.93749" lon="-1.12825">
        <ele>102</ele>
        <time>2025-01-17T14:48:24.389Z</time>
      </trkpt>
      <trkpt lat="46.93797" lon="-1.12821">
        <ele>102.4</ele>
        <time>2025-01-17T14:48:33.214Z</time>
      </trkpt>
      <trkpt lat="46.94969" lon="-1.12435">
        <ele>105.9</ele>
        <time>2025-01-17T14:52:02.281Z</time>
      </trkpt>
      <trkpt lat="46.95783" lon="-1.12157">
        <ele>105</ele>
        <time>2025-01-17T14:54:22.300Z</time>
      </trkpt>
      <trkpt lat="46.95937" lon="-1.12102">
        <ele>106.2</ele>
        <time>2025-01-17T14:54:51.180Z</time>
      </trkpt>
      <trkpt lat="46.96152" lon="-1.12031">
        <ele>106</ele>
        <time>2025-01-17T14:55:28.160Z</time>
      </trkpt>
      <trkpt lat="46.96262" lon="-1.11992">
        <ele>106</ele>
        <time>2025-01-17T14:55:47.313Z</time>
      </trkpt>
      <trkpt lat="46.96342" lon="-1.11957">
        <ele>108</ele>
        <time>2025-01-17T14:56:05.386Z</time>
      </trkpt>
      <trkpt lat="46.96354" lon="-1.11944">
        <ele>108</ele>
        <time>2025-01-17T14:56:07.911Z</time>
      </trkpt>
      <trkpt lat="46.96382" lon="-1.11945">
        <ele>109.5</ele>
        <time>2025-01-17T14:56:16.566Z</time>
      </trkpt>
      <trkpt lat="46.96403" lon="-1.1194">
        <ele>110.1</ele>
        <time>2025-01-17T14:56:21.396Z</time>
      </trkpt>
      <trkpt lat="46.96444" lon="-1.11918">
        <ele>111</ele>
        <time>2025-01-17T14:56:30.508Z</time>
      </trkpt>
      <trkpt lat="46.96497" lon="-1.11878">
        <ele>110.5</ele>
        <time>2025-01-17T14:56:39.844Z</time>
      </trkpt>
      <trkpt lat="46.9665" lon="-1.11731">
        <ele>108</ele>
        <time>2025-01-17T14:57:07.189Z</time>
      </trkpt>
      <trkpt lat="46.9666" lon="-1.11722">
        <ele>108</ele>
        <time>2025-01-17T14:57:09.175Z</time>
      </trkpt>
      <trkpt lat="46.96659" lon="-1.11719">
        <ele>107.9</ele>
        <time>2025-01-17T14:57:09.444Z</time>
      </trkpt>
      <trkpt lat="46.96661" lon="-1.11711">
        <ele>107.6</ele>
        <time>2025-01-17T14:57:10.094Z</time>
      </trkpt>
      <trkpt lat="46.96667" lon="-1.1171">
        <ele>107.6</ele>
        <time>2025-01-17T14:57:11.116Z</time>
      </trkpt>
      <trkpt lat="46.96669" lon="-1.11712">
        <ele>107.6</ele>
        <time>2025-01-17T14:57:11.526Z</time>
      </trkpt>
      <trkpt lat="46.96759" lon="-1.11625">
        <ele>108</ele>
        <time>2025-01-17T14:57:30.436Z</time>
      </trkpt>
      <trkpt lat="46.97224" lon="-1.11314">
        <ele>86.2</ele>
        <time>2025-01-17T14:58:31.213Z</time>
      </trkpt>
      <trkpt lat="46.9738" lon="-1.11232">
        <ele>80</ele>
        <time>2025-01-17T14:58:51.684Z</time>
      </trkpt>
      <trkpt lat="46.97416" lon="-1.11219">
        <ele>82.1</ele>
        <time>2025-01-17T14:59:03.610Z</time>
      </trkpt>
      <trkpt lat="46.97456" lon="-1.11216">
        <ele>83.9</ele>
        <time>2025-01-17T14:59:14.706Z</time>
      </trkpt>
      <trkpt lat="46.97672" lon="-1.11238">
        <ele>87.2</ele>
        <time>2025-01-17T14:59:57.376Z</time>
      </trkpt>
      <trkpt lat="46.97874" lon="-1.11262">
        <ele>85.5</ele>
        <time>2025-01-17T15:00:29.114Z</time>
      </trkpt>
      <trkpt lat="46.97903" lon="-1.11263">
        <ele>87</ele>
        <time>2025-01-17T15:00:37.867Z</time>
      </trkpt>
      <trkpt lat="46.97935" lon="-1.11258">
        <ele>88.4</ele>
        <time>2025-01-17T15:00:46.624Z</time>
      </trkpt>
      <trkpt lat="46.98244" lon="-1.11158">
        <ele>90.5</ele>
        <time>2025-01-17T15:01:43.746Z</time>
      </trkpt>
      <trkpt lat="46.98824" lon="-1.10994">
        <ele>90.9</ele>
        <time>2025-01-17T15:03:24.361Z</time>
      </trkpt>
      <trkpt lat="46.98996" lon="-1.10969">
        <ele>82</ele>
        <time>2025-01-17T15:03:43.694Z</time>
      </trkpt>
      <trkpt lat="46.99025" lon="-1.10962">
        <ele>80.9</ele>
        <time>2025-01-17T15:03:47.324Z</time>
      </trkpt>
      <trkpt lat="46.99052" lon="-1.10947">
        <ele>79.3</ele>
        <time>2025-01-17T15:03:50.471Z</time>
      </trkpt>
      <trkpt lat="46.9918" lon="-1.10845">
        <ele>71.9</ele>
        <time>2025-01-17T15:04:06.843Z</time>
      </trkpt>
      <trkpt lat="46.99222" lon="-1.10828">
        <ele>69.4</ele>
        <time>2025-01-17T15:04:11.532Z</time>
      </trkpt>
      <trkpt lat="46.99287" lon="-1.10819">
        <ele>68</ele>
        <time>2025-01-17T15:04:20.668Z</time>
      </trkpt>
      <trkpt lat="46.99298" lon="-1.10823">
        <ele>70</ele>
        <time>2025-01-17T15:04:28.888Z</time>
      </trkpt>
      <trkpt lat="46.99317" lon="-1.10838">
        <ele>70.9</ele>
        <time>2025-01-17T15:04:34.632Z</time>
      </trkpt>
      <trkpt lat="46.99334" lon="-1.10855">
        <ele>71.5</ele>
        <time>2025-01-17T15:04:39.355Z</time>
      </trkpt>
      <trkpt lat="46.99342" lon="-1.10867">
        <ele>72.1</ele>
        <time>2025-01-17T15:04:42.840Z</time>
      </trkpt>
      <trkpt lat="46.99351" lon="-1.10891">
        <ele>73.2</ele>
        <time>2025-01-17T15:04:49.029Z</time>
      </trkpt>
      <trkpt lat="46.99359" lon="-1.10948">
        <ele>75.9</ele>
        <time>2025-01-17T15:05:03.891Z</time>
      </trkpt>
      <trkpt lat="46.99367" lon="-1.10972">
        <ele>77.6</ele>
        <time>2025-01-17T15:05:13.474Z</time>
      </trkpt>
      <trkpt lat="46.99377" lon="-1.10996">
        <ele>78.7</ele>
        <time>2025-01-17T15:05:19.702Z</time>
      </trkpt>
      <trkpt lat="46.99388" lon="-1.11016">
        <ele>79.3</ele>
        <time>2025-01-17T15:05:23.967Z</time>
      </trkpt>
      <trkpt lat="46.99408" lon="-1.11046">
        <ele>80.2</ele>
        <time>2025-01-17T15:05:30.709Z</time>
      </trkpt>
      <trkpt lat="46.99435" lon="-1.1107">
        <ele>82.6</ele>
        <time>2025-01-17T15:05:43.888Z</time>
      </trkpt>
      <trkpt lat="46.99448" lon="-1.11074">
        <ele>83.8</ele>
        <time>2025-01-17T15:05:50.612Z</time>
      </trkpt>
      <trkpt lat="46.99474" lon="-1.11072">
        <ele>84.8</ele>
        <time>2025-01-17T15:05:57.271Z</time>
      </trkpt>
      <trkpt lat="46.99499" lon="-1.1106">
        <ele>85.7</ele>
        <time>2025-01-17T15:06:03.671Z</time>
      </trkpt>
      <trkpt lat="46.99521" lon="-1.11046">
        <ele>87.2</ele>
        <time>2025-01-17T15:06:12.013Z</time>
      </trkpt>
      <trkpt lat="46.99535" lon="-1.11032">
        <ele>87.6</ele>
        <time>2025-01-17T15:06:15.667Z</time>
      </trkpt>
      <trkpt lat="46.99551" lon="-1.11011">
        <ele>87.8</ele>
        <time>2025-01-17T15:06:19.649Z</time>
      </trkpt>
      <trkpt lat="46.99595" lon="-1.10909">
        <ele>87.9</ele>
        <time>2025-01-17T15:06:33.742Z</time>
      </trkpt>
      <trkpt lat="46.99611" lon="-1.10883">
        <ele>88</ele>
        <time>2025-01-17T15:06:37.951Z</time>
      </trkpt>
      <trkpt lat="46.99626" lon="-1.10869">
        <ele>87.3</ele>
        <time>2025-01-17T15:06:40.116Z</time>
      </trkpt>
      <trkpt lat="46.99645" lon="-1.10858">
        <ele>86.9</ele>
        <time>2025-01-17T15:06:43.019Z</time>
      </trkpt>
      <trkpt lat="47.00075" lon="-1.10779">
        <ele>86.7</ele>
        <time>2025-01-17T15:07:56.040Z</time>
      </trkpt>
      <trkpt lat="47.00103" lon="-1.10779">
        <ele>88.4</ele>
        <time>2025-01-17T15:08:05.544Z</time>
      </trkpt>
      <trkpt lat="47.00636" lon="-1.10908">
        <ele>95.3</ele>
        <time>2025-01-17T15:09:49.308Z</time>
      </trkpt>
      <trkpt lat="47.00755" lon="-1.10935">
        <ele>99.5</ele>
        <time>2025-01-17T15:10:18.838Z</time>
      </trkpt>
      <trkpt lat="47.00751" lon="-1.10852">
        <ele>101</ele>
        <time>2025-01-17T15:10:31.464Z</time>
      </trkpt>
      <trkpt lat="47.00744" lon="-1.10771">
        <ele>102.2</ele>
        <time>2025-01-17T15:10:43.203Z</time>
      </trkpt>
      <trkpt lat="47.00735" lon="-1.10701">
        <ele>103</ele>
        <time>2025-01-17T15:10:52.900Z</time>
      </trkpt>
      <trkpt lat="47.0072" lon="-1.1062">
        <ele>104.6</ele>
        <time>2025-01-17T15:11:05.857Z</time>
      </trkpt>
      <trkpt lat="47.00706" lon="-1.10567">
        <ele>105.3</ele>
        <time>2025-01-17T15:11:13.726Z</time>
      </trkpt>
      <trkpt lat="47.00682" lon="-1.10484">
        <ele>106.9</ele>
        <time>2025-01-17T15:11:27.344Z</time>
      </trkpt>
      <trkpt lat="47.00632" lon="-1.10339">
        <ele>105.7</ele>
        <time>2025-01-17T15:11:44.321Z</time>
      </trkpt>
      <trkpt lat="47.00576" lon="-1.10194">
        <ele>105</ele>
        <time>2025-01-17T15:12:02.480Z</time>
      </trkpt>
      <trkpt lat="47.00538" lon="-1.10106">
        <ele>105.4</ele>
        <time>2025-01-17T15:12:15.175Z</time>
      </trkpt>
      <trkpt lat="47.00477" lon="-1.0998">
        <ele>106</ele>
        <time>2025-01-17T15:12:34.019Z</time>
      </trkpt>
      <trkpt lat="47.00422" lon="-1.09874">
        <ele>107</ele>
        <time>2025-01-17T15:12:51.153Z</time>
      </trkpt>
      <trkpt lat="47.00383" lon="-1.09808">
        <ele>108</ele>
        <time>2025-01-17T15:13:03.083Z</time>
      </trkpt>
      <trkpt lat="47.00354" lon="-1.0976">
        <ele>107.7</ele>
        <time>2025-01-17T15:13:10.027Z</time>
      </trkpt>
      <trkpt lat="47.00302" lon="-1.09687">
        <ele>107.2</ele>
        <time>2025-01-17T15:13:21.448Z</time>
      </trkpt>
      <trkpt lat="47.00236" lon="-1.09608">
        <ele>106.6</ele>
        <time>2025-01-17T15:13:34.954Z</time>
      </trkpt>
      <trkpt lat="47.00198" lon="-1.09569">
        <ele>107</ele>
        <time>2025-01-17T15:13:43.494Z</time>
      </trkpt>
      <trkpt lat="47.00146" lon="-1.09526">
        <ele>106</ele>
        <time>2025-01-17T15:13:52.183Z</time>
      </trkpt>
      <trkpt lat="47.0003" lon="-1.09445">
        <ele>106</ele>
        <time>2025-01-17T15:14:13.927Z</time>
      </trkpt>
      <trkpt lat="46.99884" lon="-1.09356">
        <ele>104</ele>
        <time>2025-01-17T15:14:37.770Z</time>
      </trkpt>
      <trkpt lat="46.99759" lon="-1.09283">
        <ele>101.1</ele>
        <time>2025-01-17T15:14:56.581Z</time>
      </trkpt>
      <trkpt lat="46.99689" lon="-1.09239">
        <ele>99.5</ele>
        <time>2025-01-17T15:15:07.277Z</time>
      </trkpt>
      <trkpt lat="46.99625" lon="-1.09196">
        <ele>99.5</ele>
        <time>2025-01-17T15:15:19.192Z</time>
      </trkpt>
      <trkpt lat="46.99535" lon="-1.09127">
        <ele>101.3</ele>
        <time>2025-01-17T15:15:39.739Z</time>
      </trkpt>
      <trkpt lat="46.99512" lon="-1.09107">
        <ele>102.1</ele>
        <time>2025-01-17T15:15:45.929Z</time>
      </trkpt>
      <trkpt lat="46.99357" lon="-1.08947">
        <ele>108.1</ele>
        <time>2025-01-17T15:16:30.697Z</time>
      </trkpt>
      <trkpt lat="46.9926" lon="-1.08857">
        <ele>110</ele>
        <time>2025-01-17T15:16:53.634Z</time>
      </trkpt>
      <trkpt lat="46.99223" lon="-1.08826">
        <ele>110</ele>
        <time>2025-01-17T15:17:00.846Z</time>
      </trkpt>
      <trkpt lat="46.99146" lon="-1.0877">
        <ele>110</ele>
        <time>2025-01-17T15:17:15.393Z</time>
      </trkpt>
      <trkpt lat="46.99102" lon="-1.0874">
        <ele>110.4</ele>
        <time>2025-01-17T15:17:24.294Z</time>
      </trkpt>
      <trkpt lat="46.99014" lon="-1.08689">
        <ele>110.6</ele>
        <time>2025-01-17T15:17:40.636Z</time>
      </trkpt>
      <trkpt lat="46.98899" lon="-1.08627">
        <ele>111</ele>
        <time>2025-01-17T15:18:02.034Z</time>
      </trkpt>
      <trkpt lat="46.98841" lon="-1.08599">
        <ele>111</ele>
        <time>2025-01-17T15:18:12.368Z</time>
      </trkpt>
      <trkpt lat="46.98657" lon="-1.08515">
        <ele>111</ele>
        <time>2025-01-17T15:18:44.983Z</time>
      </trkpt>
      <trkpt lat="46.98581" lon="-1.08472">
        <ele>110.9</ele>
        <time>2025-01-17T15:18:58.611Z</time>
      </trkpt>
      <trkpt lat="46.98532" lon="-1.08439">
        <ele>110.7</ele>
        <time>2025-01-17T15:19:07.424Z</time>
      </trkpt>
      <trkpt lat="46.98383" lon="-1.08328">
        <ele>111</ele>
        <time>2025-01-17T15:19:36.201Z</time>
      </trkpt>
      <trkpt lat="46.98337" lon="-1.08297">
        <ele>112</ele>
        <time>2025-01-17T15:19:46.668Z</time>
      </trkpt>
      <trkpt lat="46.98165" lon="-1.08201">
        <ele>116.1</ele>
        <time>2025-01-17T15:20:25.779Z</time>
      </trkpt>
      <trkpt lat="46.98069" lon="-1.08138">
        <ele>118.5</ele>
        <time>2025-01-17T15:20:48.264Z</time>
      </trkpt>
      <trkpt lat="46.9802" lon="-1.08101">
        <ele>119.3</ele>
        <time>2025-01-17T15:20:59.044Z</time>
      </trkpt>
      <trkpt lat="46.97978" lon="-1.08064">
        <ele>120</ele>
        <time>2025-01-17T15:21:08.605Z</time>
      </trkpt>
      <trkpt lat="46.97931" lon="-1.08019">
        <ele>120</ele>
        <time>2025-01-17T15:21:18.106Z</time>
      </trkpt>
      <trkpt lat="46.97858" lon="-1.07941">
        <ele>121</ele>
        <time>2025-01-17T15:21:35.158Z</time>
      </trkpt>
      <trkpt lat="46.97804" lon="-1.07888">
        <ele>121</ele>
        <time>2025-01-17T15:21:46.157Z</time>
      </trkpt>
      <trkpt lat="46.9773" lon="-1.07827">
        <ele>121.9</ele>
        <time>2025-01-17T15:22:02.105Z</time>
      </trkpt>
      <trkpt lat="46.97661" lon="-1.07778">
        <ele>122</ele>
        <time>2025-01-17T15:22:15.244Z</time>
      </trkpt>
      <trkpt lat="46.9762" lon="-1.07752">
        <ele>122</ele>
        <time>2025-01-17T15:22:22.804Z</time>
      </trkpt>
      <trkpt lat="46.9752" lon="-1.07694">
        <ele>123</ele>
        <time>2025-01-17T15:22:42.742Z</time>
      </trkpt>
      <trkpt lat="46.97411" lon="-1.07638">
        <ele>123</ele>
        <time>2025-01-17T15:23:02.289Z</time>
      </trkpt>
      <trkpt lat="46.97358" lon="-1.07614">
        <ele>123</ele>
        <time>2025-01-17T15:23:11.678Z</time>
      </trkpt>
      <trkpt lat="46.97269" lon="-1.07576">
        <ele>123.3</ele>
        <time>2025-01-17T15:23:27.862Z</time>
      </trkpt>
      <trkpt lat="46.97227" lon="-1.07561">
        <ele>123.1</ele>
        <time>2025-01-17T15:23:34.867Z</time>
      </trkpt>
      <trkpt lat="46.97153" lon="-1.07538">
        <ele>121.8</ele>
        <time>2025-01-17T15:23:45.837Z</time>
      </trkpt>
      <trkpt lat="46.97044" lon="-1.07512">
        <ele>121</ele>
        <time>2025-01-17T15:24:03.311Z</time>
      </trkpt>
      <trkpt lat="46.9696" lon="-1.07496">
        <ele>120.6</ele>
        <time>2025-01-17T15:24:17.026Z</time>
      </trkpt>
      <trkpt lat="46.96834" lon="-1.07481">
        <ele>121</ele>
        <time>2025-01-17T15:24:39.081Z</time>
      </trkpt>
      <trkpt lat="46.9672" lon="-1.07471">
        <ele>121.9</ele>
        <time>2025-01-17T15:24:59.953Z</time>
      </trkpt>
      <trkpt lat="46.96663" lon="-1.07471">
        <ele>121</ele>
        <time>2025-01-17T15:25:08.318Z</time>
      </trkpt>
      <trkpt lat="46.96618" lon="-1.07472">
        <ele>120.3</ele>
        <time>2025-01-17T15:25:14.936Z</time>
      </trkpt>
      <trkpt lat="46.96552" lon="-1.07478">
        <ele>118.9</ele>
        <time>2025-01-17T15:25:24.210Z</time>
      </trkpt>
      <trkpt lat="46.9648" lon="-1.07497">
        <ele>116.3</ele>
        <time>2025-01-17T15:25:33.373Z</time>
      </trkpt>
      <trkpt lat="46.96382" lon="-1.0754">
        <ele>112.3</ele>
        <time>2025-01-17T15:25:45.853Z</time>
      </trkpt>
      <trkpt lat="46.9635" lon="-1.07548">
        <ele>110.6</ele>
        <time>2025-01-17T15:25:49.463Z</time>
      </trkpt>
      <trkpt lat="46.96315" lon="-1.07545">
        <ele>108.8</ele>
        <time>2025-01-17T15:25:53.388Z</time>
      </trkpt>
      <trkpt lat="46.96297" lon="-1.0754">
        <ele>108.2</ele>
        <time>2025-01-17T15:25:55.732Z</time>
      </trkpt>
      <trkpt lat="46.96229" lon="-1.07506">
        <ele>105.2</ele>
        <time>2025-01-17T15:26:04.330Z</time>
      </trkpt>
      <trkpt lat="46.96216" lon="-1.07505">
        <ele>104.2</ele>
        <time>2025-01-17T15:26:05.652Z</time>
      </trkpt>
      <trkpt lat="46.96191" lon="-1.07515">
        <ele>103.4</ele>
        <time>2025-01-17T15:26:09.015Z</time>
      </trkpt>
      <trkpt lat="46.96171" lon="-1.0753">
        <ele>101.5</ele>
        <time>2025-01-17T15:26:11.297Z</time>
      </trkpt>
      <trkpt lat="46.96141" lon="-1.07565">
        <ele>99.8</ele>
        <time>2025-01-17T15:26:15.802Z</time>
      </trkpt>
      <trkpt lat="46.96124" lon="-1.07582">
        <ele>98.5</ele>
        <time>2025-01-17T15:26:17.938Z</time>
      </trkpt>
      <trkpt lat="46.96103" lon="-1.07597">
        <ele>98.2</ele>
        <time>2025-01-17T15:26:21.455Z</time>
      </trkpt>
      <trkpt lat="46.96082" lon="-1.07606">
        <ele>97.1</ele>
        <time>2025-01-17T15:26:23.923Z</time>
      </trkpt>
      <trkpt lat="46.9606" lon="-1.07608">
        <ele>95.6</ele>
        <time>2025-01-17T15:26:26.161Z</time>
      </trkpt>
      <trkpt lat="46.96043" lon="-1.07607">
        <ele>94.8</ele>
        <time>2025-01-17T15:26:28.123Z</time>
      </trkpt>
      <trkpt lat="46.9602" lon="-1.07602">
        <ele>93.7</ele>
        <time>2025-01-17T15:26:30.798Z</time>
      </trkpt>
      <trkpt lat="46.95997" lon="-1.07587">
        <ele>92.9</ele>
        <time>2025-01-17T15:26:34.043Z</time>
      </trkpt>
      <trkpt lat="46.95978" lon="-1.07572">
        <ele>92.4</ele>
        <time>2025-01-17T15:26:37.021Z</time>
      </trkpt>
      <trkpt lat="46.95948" lon="-1.0754">
        <ele>93</ele>
        <time>2025-01-17T15:26:44.406Z</time>
      </trkpt>
      <trkpt lat="46.95924" lon="-1.07501">
        <ele>94.9</ele>
        <time>2025-01-17T15:26:55.403Z</time>
      </trkpt>
      <trkpt lat="46.95907" lon="-1.07468">
        <ele>98</ele>
        <time>2025-01-17T15:27:13.358Z</time>
      </trkpt>
      <trkpt lat="46.95897" lon="-1.07452">
        <ele>98.6</ele>
        <time>2025-01-17T15:27:17.243Z</time>
      </trkpt>
      <trkpt lat="46.95886" lon="-1.07442">
        <ele>99</ele>
        <time>2025-01-17T15:27:20.274Z</time>
      </trkpt>
      <trkpt lat="46.95874" lon="-1.07435">
        <ele>99.4</ele>
        <time>2025-01-17T15:27:23.300Z</time>
      </trkpt>
      <trkpt lat="46.95862" lon="-1.07432">
        <ele>100</ele>
        <time>2025-01-17T15:27:26.862Z</time>
      </trkpt>
      <trkpt lat="46.95836" lon="-1.07436">
        <ele>101.6</ele>
        <time>2025-01-17T15:27:35.793Z</time>
      </trkpt>
      <trkpt lat="46.95821" lon="-1.07445">
        <ele>102</ele>
        <time>2025-01-17T15:27:39.330Z</time>
      </trkpt>
      <trkpt lat="46.95775" lon="-1.075">
        <ele>105.9</ele>
        <time>2025-01-17T15:28:00.870Z</time>
      </trkpt>
      <trkpt lat="46.95747" lon="-1.07524">
        <ele>108.5</ele>
        <time>2025-01-17T15:28:15.195Z</time>
      </trkpt>
      <trkpt lat="46.95707" lon="-1.0754">
        <ele>111.3</ele>
        <time>2025-01-17T15:28:30.616Z</time>
      </trkpt>
      <trkpt lat="46.95672" lon="-1.07545">
        <ele>113.9</ele>
        <time>2025-01-17T15:28:44.885Z</time>
      </trkpt>
      <trkpt lat="46.95577" lon="-1.07532">
        <ele>117.4</ele>
        <time>2025-01-17T15:29:08.789Z</time>
      </trkpt>
      <trkpt lat="46.95538" lon="-1.07533">
        <ele>118.8</ele>
        <time>2025-01-17T15:29:18.470Z</time>
      </trkpt>
      <trkpt lat="46.95491" lon="-1.07547">
        <ele>121</ele>
        <time>2025-01-17T15:29:31.911Z</time>
      </trkpt>
      <trkpt lat="46.95469" lon="-1.07558">
        <ele>122.2</ele>
        <time>2025-01-17T15:29:38.917Z</time>
      </trkpt>
      <trkpt lat="46.95447" lon="-1.07573">
        <ele>123.5</ele>
        <time>2025-01-17T15:29:46.418Z</time>
      </trkpt>
      <trkpt lat="46.95415" lon="-1.07604">
        <ele>124.7</ele>
        <time>2025-01-17T15:29:55.439Z</time>
      </trkpt>
      <trkpt lat="46.95388" lon="-1.07639">
        <ele>126</ele>
        <time>2025-01-17T15:30:04.404Z</time>
      </trkpt>
      <trkpt lat="46.95352" lon="-1.07702">
        <ele>125</ele>
        <time>2025-01-17T15:30:12.492Z</time>
      </trkpt>
      <trkpt lat="46.95301" lon="-1.07805">
        <ele>125</ele>
        <time>2025-01-17T15:30:27.192Z</time>
      </trkpt>
      <trkpt lat="46.95265" lon="-1.07859">
        <ele>124</ele>
        <time>2025-01-17T15:30:34.525Z</time>
      </trkpt>
      <trkpt lat="46.95234" lon="-1.07892">
        <ele>124</ele>
        <time>2025-01-17T15:30:41.010Z</time>
      </trkpt>
      <trkpt lat="46.95167" lon="-1.0794">
        <ele>123</ele>
        <time>2025-01-17T15:30:52.182Z</time>
      </trkpt>
      <trkpt lat="46.95168" lon="-1.07952">
        <ele>123</ele>
        <time>2025-01-17T15:30:53.579Z</time>
      </trkpt>
      <trkpt lat="46.95164" lon="-1.07964">
        <ele>123</ele>
        <time>2025-01-17T15:30:55.122Z</time>
      </trkpt>
      <trkpt lat="46.95156" lon="-1.07969">
        <ele>123</ele>
        <time>2025-01-17T15:30:56.594Z</time>
      </trkpt>
      <trkpt lat="46.95148" lon="-1.07968">
        <ele>123</ele>
        <time>2025-01-17T15:30:57.953Z</time>
      </trkpt>
      <trkpt lat="46.95141" lon="-1.0796">
        <ele>123</ele>
        <time>2025-01-17T15:30:59.455Z</time>
      </trkpt>
      <trkpt lat="46.9514" lon="-1.07954">
        <ele>123</ele>
        <time>2025-01-17T15:31:00.169Z</time>
      </trkpt>
      <trkpt lat="46.95097" lon="-1.07974">
        <ele>123</ele>
        <time>2025-01-17T15:31:07.804Z</time>
      </trkpt>
      <trkpt lat="46.95026" lon="-1.08001">
        <ele>123</ele>
        <time>2025-01-17T15:31:20.218Z</time>
      </trkpt>
      <trkpt lat="46.94995" lon="-1.08006">
        <ele>123</ele>
        <time>2025-01-17T15:31:25.496Z</time>
      </trkpt>
      <trkpt lat="46.948" lon="-1.08008">
        <ele>124.7</ele>
        <time>2025-01-17T15:32:01.437Z</time>
      </trkpt>
      <trkpt lat="46.9424" lon="-1.08003">
        <ele>130</ele>
        <time>2025-01-17T15:33:45.429Z</time>
      </trkpt>
      <trkpt lat="46.9414" lon="-1.08001">
        <ele>130</ele>
        <time>2025-01-17T15:34:02.354Z</time>
      </trkpt>
      <trkpt lat="46.94103" lon="-1.07999">
        <ele>129</ele>
        <time>2025-01-17T15:34:07.307Z</time>
      </trkpt>
      <trkpt lat="46.94074" lon="-1.07992">
        <ele>128.7</ele>
        <time>2025-01-17T15:34:11.836Z</time>
      </trkpt>
      <trkpt lat="46.94053" lon="-1.07983">
        <ele>128</ele>
        <time>2025-01-17T15:34:14.651Z</time>
      </trkpt>
      <trkpt lat="46.94014" lon="-1.07962">
        <ele>127.8</ele>
        <time>2025-01-17T15:34:21.373Z</time>
      </trkpt>
      <trkpt lat="46.93971" lon="-1.07929">
        <ele>126.4</ele>
        <time>2025-01-17T15:34:27.774Z</time>
      </trkpt>
      <trkpt lat="46.93739" lon="-1.07709">
        <ele>126.7</ele>
        <time>2025-01-17T15:35:15.036Z</time>
      </trkpt>
      <trkpt lat="46.93733" lon="-1.07717">
        <ele>126.3</ele>
        <time>2025-01-17T15:35:15.957Z</time>
      </trkpt>
      <trkpt lat="46.93727" lon="-1.07722">
        <ele>126</ele>
        <time>2025-01-17T15:35:16.773Z</time>
      </trkpt>
      <trkpt lat="46.93721" lon="-1.07724">
        <ele>126</ele>
        <time>2025-01-17T15:35:17.815Z</time>
      </trkpt>
      <trkpt lat="46.93715" lon="-1.07723">
        <ele>126</ele>
        <time>2025-01-17T15:35:18.837Z</time>
      </trkpt>
      <trkpt lat="46.93705" lon="-1.07716">
        <ele>126.2</ele>
        <time>2025-01-17T15:35:21.087Z</time>
      </trkpt>
      <trkpt lat="46.93699" lon="-1.07704">
        <ele>126.2</ele>
        <time>2025-01-17T15:35:22.805Z</time>
      </trkpt>
      <trkpt lat="46.93697" lon="-1.07696">
        <ele>126.2</ele>
        <time>2025-01-17T15:35:23.790Z</time>
      </trkpt>
      <trkpt lat="46.93697" lon="-1.07688">
        <ele>126.2</ele>
        <time>2025-01-17T15:35:24.714Z</time>
      </trkpt>
      <trkpt lat="46.93699" lon="-1.07674">
        <ele>126.2</ele>
        <time>2025-01-17T15:35:26.367Z</time>
      </trkpt>
      <trkpt lat="46.9369" lon="-1.07637">
        <ele>126.1</ele>
        <time>2025-01-17T15:35:30.750Z</time>
      </trkpt>
      <trkpt lat="46.93658" lon="-1.07594">
        <ele>126.6</ele>
        <time>2025-01-17T15:35:38.984Z</time>
      </trkpt>
      <trkpt lat="46.93484" lon="-1.07407">
        <ele>132.8</ele>
        <time>2025-01-17T15:36:28.272Z</time>
      </trkpt>
      <trkpt lat="46.93444" lon="-1.07357">
        <ele>133.1</ele>
        <time>2025-01-17T15:36:37.678Z</time>
      </trkpt>
      <trkpt lat="46.93416" lon="-1.07318">
        <ele>132.5</ele>
        <time>2025-01-17T15:36:43.361Z</time>
      </trkpt>
      <trkpt lat="46.93391" lon="-1.07276">
        <ele>132</ele>
        <time>2025-01-17T15:36:49.073Z</time>
      </trkpt>
      <trkpt lat="46.93365" lon="-1.0722">
        <ele>131</ele>
        <time>2025-01-17T15:36:55.534Z</time>
      </trkpt>
      <trkpt lat="46.93347" lon="-1.07171">
        <ele>130.8</ele>
        <time>2025-01-17T15:37:01.656Z</time>
      </trkpt>
      <trkpt lat="46.93335" lon="-1.0713">
        <ele>132.8</ele>
        <time>2025-01-17T15:37:12.702Z</time>
      </trkpt>
      <trkpt lat="46.93109" lon="-1.06154">
        <ele>157.5</ele>
        <time>2025-01-17T15:40:05.732Z</time>
      </trkpt>
      <trkpt lat="46.93064" lon="-1.05953">
        <ele>162.5</ele>
        <time>2025-01-17T15:40:41.045Z</time>
      </trkpt>
      <trkpt lat="46.93057" lon="-1.05909">
        <ele>160.8</ele>
        <time>2025-01-17T15:40:44.415Z</time>
      </trkpt>
      <trkpt lat="46.93051" lon="-1.05844">
        <ele>160.5</ele>
        <time>2025-01-17T15:40:51.537Z</time>
      </trkpt>
      <trkpt lat="46.93052" lon="-1.05812">
        <ele>164.5</ele>
        <time>2025-01-17T15:41:07.403Z</time>
      </trkpt>
      <trkpt lat="46.93053" lon="-1.05781">
        <ele>167.5</ele>
        <time>2025-01-17T15:41:22.775Z</time>
      </trkpt>
      <trkpt lat="46.93064" lon="-1.05715">
        <ele>170.3</ele>
        <time>2025-01-17T15:41:38.447Z</time>
      </trkpt>
      <trkpt lat="46.93085" lon="-1.05644">
        <ele>171.9</ele>
        <time>2025-01-17T15:41:50.730Z</time>
      </trkpt>
      <trkpt lat="46.93099" lon="-1.05612">
        <ele>174.5</ele>
        <time>2025-01-17T15:42:05.592Z</time>
      </trkpt>
      <trkpt lat="46.93116" lon="-1.05579">
        <ele>177.2</ele>
        <time>2025-01-17T15:42:20.888Z</time>
      </trkpt>
      <trkpt lat="46.9315" lon="-1.05523">
        <ele>182.1</ele>
        <time>2025-01-17T15:42:48.652Z</time>
      </trkpt>
      <trkpt lat="46.93146" lon="-1.05516">
        <ele>182.3</ele>
        <time>2025-01-17T15:42:50.131Z</time>
      </trkpt>
      <trkpt lat="46.93144" lon="-1.05499">
        <ele>183.2</ele>
        <time>2025-01-17T15:42:55.075Z</time>
      </trkpt>
      <trkpt lat="46.93146" lon="-1.05491">
        <ele>183.3</ele>
        <time>2025-01-17T15:42:56.245Z</time>
      </trkpt>
      <trkpt lat="46.92178" lon="-1.0502">
        <ele>161.7</ele>
        <time>2025-01-17T15:45:19.301Z</time>
      </trkpt>
      <trkpt lat="46.9206" lon="-1.0496">
        <ele>157.2</ele>
        <time>2025-01-17T15:45:34.890Z</time>
      </trkpt>
      <trkpt lat="46.91893" lon="-1.0488">
        <ele>151.6</ele>
        <time>2025-01-17T15:45:57.519Z</time>
      </trkpt>
      <trkpt lat="46.91797" lon="-1.04831">
        <ele>148.7</ele>
        <time>2025-01-17T15:46:10.957Z</time>
      </trkpt>
      <trkpt lat="46.91719" lon="-1.04789">
        <ele>144.8</ele>
        <time>2025-01-17T15:46:20.547Z</time>
      </trkpt>
      <trkpt lat="46.91622" lon="-1.04732">
        <ele>140.9</ele>
        <time>2025-01-17T15:46:33.467Z</time>
      </trkpt>
      <trkpt lat="46.91139" lon="-1.04494">
        <ele>121.2</ele>
        <time>2025-01-17T15:47:35.840Z</time>
      </trkpt>
      <trkpt lat="46.91094" lon="-1.04475">
        <ele>118.8</ele>
        <time>2025-01-17T15:47:41.087Z</time>
      </trkpt>
      <trkpt lat="46.91037" lon="-1.04456">
        <ele>115.4</ele>
        <time>2025-01-17T15:47:47.347Z</time>
      </trkpt>
      <trkpt lat="46.90978" lon="-1.04442">
        <ele>116.5</ele>
        <time>2025-01-17T15:47:59.527Z</time>
      </trkpt>
      <trkpt lat="46.90931" lon="-1.04437">
        <ele>117.3</ele>
        <time>2025-01-17T15:48:08.985Z</time>
      </trkpt>
      <trkpt lat="46.90853" lon="-1.04437">
        <ele>120.8</ele>
        <time>2025-01-17T15:48:30.574Z</time>
      </trkpt>
      <trkpt lat="46.9063" lon="-1.04453">
        <ele>124</ele>
        <time>2025-01-17T15:49:14.159Z</time>
      </trkpt>
      <trkpt lat="46.9058" lon="-1.04454">
        <ele>124</ele>
        <time>2025-01-17T15:49:22.622Z</time>
      </trkpt>
      <trkpt lat="46.90535" lon="-1.0445">
        <ele>123.9</ele>
        <time>2025-01-17T15:49:30.093Z</time>
      </trkpt>
      <trkpt lat="46.90491" lon="-1.04443">
        <ele>123</ele>
        <time>2025-01-17T15:49:36.344Z</time>
      </trkpt>
      <trkpt lat="46.90409" lon="-1.0442">
        <ele>121.7</ele>
        <time>2025-01-17T15:49:48.619Z</time>
      </trkpt>
      <trkpt lat="46.90231" lon="-1.04339">
        <ele>119.5</ele>
        <time>2025-01-17T15:50:16.937Z</time>
      </trkpt>
      <trkpt lat="46.9021" lon="-1.04339">
        <ele>120.2</ele>
        <time>2025-01-17T15:50:21.994Z</time>
      </trkpt>
      <trkpt lat="46.90198" lon="-1.04344">
        <ele>120.5</ele>
        <time>2025-01-17T15:50:24.698Z</time>
      </trkpt>
      <trkpt lat="46.90192" lon="-1.04357">
        <ele>120.2</ele>
        <time>2025-01-17T15:50:26.121Z</time>
      </trkpt>
      <trkpt lat="46.90181" lon="-1.04365">
        <ele>119.9</ele>
        <time>2025-01-17T15:50:27.798Z</time>
      </trkpt>
      <trkpt lat="46.90175" lon="-1.04365">
        <ele>119.9</ele>
        <time>2025-01-17T15:50:28.814Z</time>
      </trkpt>
      <trkpt lat="46.90167" lon="-1.04362">
        <ele>120</ele>
        <time>2025-01-17T15:50:30.389Z</time>
      </trkpt>
      <trkpt lat="46.90158" lon="-1.04354">
        <ele>120.4</ele>
        <time>2025-01-17T15:50:33.069Z</time>
      </trkpt>
      <trkpt lat="46.90154" lon="-1.04343">
        <ele>120.7</ele>
        <time>2025-01-17T15:50:35.165Z</time>
      </trkpt>
      <trkpt lat="46.90152" lon="-1.04331">
        <ele>120.9</ele>
        <time>2025-01-17T15:50:36.987Z</time>
      </trkpt>
      <trkpt lat="46.90153" lon="-1.04319">
        <ele>121</ele>
        <time>2025-01-17T15:50:38.563Z</time>
      </trkpt>
      <trkpt lat="46.9016" lon="-1.04304">
        <ele>121</ele>
        <time>2025-01-17T15:50:40.663Z</time>
      </trkpt>
      <trkpt lat="46.90167" lon="-1.04297">
        <ele>121</ele>
        <time>2025-01-17T15:50:42.098Z</time>
      </trkpt>
      <trkpt lat="46.90173" lon="-1.04295">
        <ele>121</ele>
        <time>2025-01-17T15:50:43.139Z</time>
      </trkpt>
      <trkpt lat="46.90183" lon="-1.04248">
        <ele>121</ele>
        <time>2025-01-17T15:50:48.832Z</time>
      </trkpt>
      <trkpt lat="46.9018" lon="-1.04129">
        <ele>123.5</ele>
        <time>2025-01-17T15:51:07.842Z</time>
      </trkpt>
      <trkpt lat="46.90172" lon="-1.04084">
        <ele>124.8</ele>
        <time>2025-01-17T15:51:16.218Z</time>
      </trkpt>
      <trkpt lat="46.90158" lon="-1.04048">
        <ele>126</ele>
        <time>2025-01-17T15:51:23.816Z</time>
      </trkpt>
      <trkpt lat="46.90142" lon="-1.04019">
        <ele>126.3</ele>
        <time>2025-01-17T15:51:28.658Z</time>
      </trkpt>
      <trkpt lat="46.90116" lon="-1.03991">
        <ele>127.3</ele>
        <time>2025-01-17T15:51:36.223Z</time>
      </trkpt>
      <trkpt lat="46.89114" lon="-1.03239">
        <ele>122</ele>
        <time>2025-01-17T15:54:38.583Z</time>
      </trkpt>
      <trkpt lat="46.88998" lon="-1.03149">
        <ele>122.6</ele>
        <time>2025-01-17T15:55:01.805Z</time>
      </trkpt>
      <trkpt lat="46.88956" lon="-1.0312">
        <ele>123.7</ele>
        <time>2025-01-17T15:55:11.829Z</time>
      </trkpt>
      <trkpt lat="46.8894" lon="-1.03113">
        <ele>123.9</ele>
        <time>2025-01-17T15:55:15.010Z</time>
      </trkpt>
      <trkpt lat="46.88923" lon="-1.03109">
        <ele>124</ele>
        <time>2025-01-17T15:55:18.093Z</time>
      </trkpt>
      <trkpt lat="46.88908" lon="-1.03107">
        <ele>124</ele>
        <time>2025-01-17T15:55:20.642Z</time>
      </trkpt>
      <trkpt lat="46.88894" lon="-1.03109">
        <ele>124.1</ele>
        <time>2025-01-17T15:55:23.193Z</time>
      </trkpt>
      <trkpt lat="46.88873" lon="-1.03117">
        <ele>124</ele>
        <time>2025-01-17T15:55:26.710Z</time>
      </trkpt>
      <trkpt lat="46.88831" lon="-1.0314">
        <ele>124.8</ele>
        <time>2025-01-17T15:55:35.794Z</time>
      </trkpt>
      <trkpt lat="46.88819" lon="-1.03102">
        <ele>124.6</ele>
        <time>2025-01-17T15:55:40.331Z</time>
      </trkpt>
      <trkpt lat="46.88803" lon="-1.03063">
        <ele>124.5</ele>
        <time>2025-01-17T15:55:45.436Z</time>
      </trkpt>
      <trkpt lat="46.88785" lon="-1.03027">
        <ele>125.3</ele>
        <time>2025-01-17T15:55:52.205Z</time>
      </trkpt>
      <trkpt lat="46.88769" lon="-1.03">
        <ele>125.7</ele>
        <time>2025-01-17T15:55:57.076Z</time>
      </trkpt>
      <trkpt lat="46.8875" lon="-1.02974">
        <ele>125.9</ele>
        <time>2025-01-17T15:56:01.821Z</time>
      </trkpt>
      <trkpt lat="46.88723" lon="-1.02946">
        <ele>126.9</ele>
        <time>2025-01-17T15:56:09.509Z</time>
      </trkpt>
      <trkpt lat="46.88692" lon="-1.02919">
        <ele>126.8</ele>
        <time>2025-01-17T15:56:15.457Z</time>
      </trkpt>
      <trkpt lat="46.88196" lon="-1.02544">
        <ele>121</ele>
        <time>2025-01-17T15:57:41.339Z</time>
      </trkpt>
      <trkpt lat="46.88189" lon="-1.02554">
        <ele>120.8</ele>
        <time>2025-01-17T15:57:42.719Z</time>
      </trkpt>
      <trkpt lat="46.8818" lon="-1.02555">
        <ele>120.5</ele>
        <time>2025-01-17T15:57:43.870Z</time>
      </trkpt>
      <trkpt lat="46.88172" lon="-1.02546">
        <ele>120.5</ele>
        <time>2025-01-17T15:57:45.578Z</time>
      </trkpt>
      <trkpt lat="46.88169" lon="-1.02533">
        <ele>120.8</ele>
        <time>2025-01-17T15:57:47.801Z</time>
      </trkpt>
      <trkpt lat="46.88171" lon="-1.02526">
        <ele>121</ele>
        <time>2025-01-17T15:57:49.130Z</time>
      </trkpt>
      <trkpt lat="46.87724" lon="-1.02188">
        <ele>117.2</ele>
        <time>2025-01-17T15:59:08.525Z</time>
      </trkpt>
      <trkpt lat="46.87704" lon="-1.02165">
        <ele>118</ele>
        <time>2025-01-17T15:59:14.519Z</time>
      </trkpt>
      <trkpt lat="46.87701" lon="-1.0217">
        <ele>117.9</ele>
        <time>2025-01-17T15:59:15.152Z</time>
      </trkpt>
      <trkpt lat="46.87695" lon="-1.02173">
        <ele>117.8</ele>
        <time>2025-01-17T15:59:16.083Z</time>
      </trkpt>
      <trkpt lat="46.87689" lon="-1.02171">
        <ele>117.9</ele>
        <time>2025-01-17T15:59:17.308Z</time>
      </trkpt>
      <trkpt lat="46.87684" lon="-1.02159">
        <ele>118</ele>
        <time>2025-01-17T15:59:19.110Z</time>
      </trkpt>
      <trkpt lat="46.87685" lon="-1.0215">
        <ele>118</ele>
        <time>2025-01-17T15:59:20.164Z</time>
      </trkpt>
      <trkpt lat="46.87667" lon="-1.02144">
        <ele>118</ele>
        <time>2025-01-17T15:59:23.289Z</time>
      </trkpt>
      <trkpt lat="46.87453" lon="-1.01983">
        <ele>109.5</ele>
        <time>2025-01-17T15:59:53.478Z</time>
      </trkpt>
      <trkpt lat="46.87317" lon="-1.01884">
        <ele>109.6</ele>
        <time>2025-01-17T16:00:19.349Z</time>
      </trkpt>
      <trkpt lat="46.87229" lon="-1.01816">
        <ele>111.9</ele>
        <time>2025-01-17T16:00:40.693Z</time>
      </trkpt>
      <trkpt lat="46.87083" lon="-1.01709">
        <ele>109</ele>
        <time>2025-01-17T16:01:04.258Z</time>
      </trkpt>
      <trkpt lat="46.87077" lon="-1.01712">
        <ele>108.8</ele>
        <time>2025-01-17T16:01:05.077Z</time>
      </trkpt>
      <trkpt lat="46.87074" lon="-1.01711">
        <ele>108.7</ele>
        <time>2025-01-17T16:01:05.471Z</time>
      </trkpt>
      <trkpt lat="46.87072" lon="-1.01708">
        <ele>108.6</ele>
        <time>2025-01-17T16:01:05.832Z</time>
      </trkpt>
      <trkpt lat="46.87072" lon="-1.01703">
        <ele>108.6</ele>
        <time>2025-01-17T16:01:06.410Z</time>
      </trkpt>
      <trkpt lat="46.87077" lon="-1.017">
        <ele>108.8</ele>
        <time>2025-01-17T16:01:07.769Z</time>
      </trkpt>
      <trkpt lat="46.87084" lon="-1.01655">
        <ele>108</ele>
        <time>2025-01-17T16:01:12.046Z</time>
      </trkpt>
      <trkpt lat="46.87106" lon="-1.01535">
        <ele>106.4</ele>
        <time>2025-01-17T16:01:24.192Z</time>
      </trkpt>
      <trkpt lat="46.8711" lon="-1.01477">
        <ele>105.9</ele>
        <time>2025-01-17T16:01:30.207Z</time>
      </trkpt>
      <trkpt lat="46.87116" lon="-1.01319">
        <ele>106.2</ele>
        <time>2025-01-17T16:01:49.009Z</time>
      </trkpt>
      <trkpt lat="46.87114" lon="-1.01307">
        <ele>106.1</ele>
        <time>2025-01-17T16:01:50.291Z</time>
      </trkpt>
      <trkpt lat="46.87066" lon="-1.01141">
        <ele>102</ele>
        <time>2025-01-17T16:02:05.991Z</time>
      </trkpt>
      <trkpt lat="46.87039" lon="-1.01059">
        <ele>102.1</ele>
        <time>2025-01-17T16:02:16.684Z</time>
      </trkpt>
      <trkpt lat="46.87006" lon="-1.00942">
        <ele>102.8</ele>
        <time>2025-01-17T16:02:32.532Z</time>
      </trkpt>
      <trkpt lat="46.87001" lon="-1.00935">
        <ele>103</ele>
        <time>2025-01-17T16:02:34.115Z</time>
      </trkpt>
      <trkpt lat="46.86997" lon="-1.00935">
        <ele>103</ele>
        <time>2025-01-17T16:02:34.792Z</time>
      </trkpt>
      <trkpt lat="46.86996" lon="-1.00932">
        <ele>103</ele>
        <time>2025-01-17T16:02:35.178Z</time>
      </trkpt>
      <trkpt lat="46.86998" lon="-1.00924">
        <ele>103</ele>
        <time>2025-01-17T16:02:36.164Z</time>
      </trkpt>
      <trkpt lat="46.86999" lon="-1.00914">
        <ele>103.1</ele>
        <time>2025-01-17T16:02:37.515Z</time>
      </trkpt>
      <trkpt lat="46.86983" lon="-1.00859">
        <ele>104.6</ele>
        <time>2025-01-17T16:02:47.755Z</time>
      </trkpt>
      <trkpt lat="46.86962" lon="-1.00754">
        <ele>107.3</ele>
        <time>2025-01-17T16:03:06.364Z</time>
      </trkpt>
      <trkpt lat="46.86947" lon="-1.00665">
        <ele>108.7</ele>
        <time>2025-01-17T16:03:19.690Z</time>
      </trkpt>
      <trkpt lat="46.86853" lon="-1.00633">
        <ele>111.2</ele>
        <time>2025-01-17T16:03:41.040Z</time>
      </trkpt>
      <trkpt lat="46.86836" lon="-1.00634">
        <ele>111.2</ele>
        <time>2025-01-17T16:03:43.919Z</time>
      </trkpt>
      <trkpt lat="46.86765" lon="-1.00654">
        <ele>110</ele>
        <time>2025-01-17T16:03:54.457Z</time>
      </trkpt>
      <trkpt lat="46.86714" lon="-1.00674">
        <ele>110</ele>
        <time>2025-01-17T16:04:03.393Z</time>
      </trkpt>
      <trkpt lat="46.86712" lon="-1.00666">
        <ele>110</ele>
        <time>2025-01-17T16:04:04.378Z</time>
      </trkpt>
      <trkpt lat="46.86708" lon="-1.0066">
        <ele>110</ele>
        <time>2025-01-17T16:04:05.348Z</time>
      </trkpt>
      <trkpt lat="46.86664" lon="-1.00646">
        <ele>111</ele>
        <time>2025-01-17T16:04:14.910Z</time>
      </trkpt>
      <trkpt lat="46.86595" lon="-1.00621">
        <ele>112.8</ele>
        <time>2025-01-17T16:04:30.532Z</time>
      </trkpt>
      <trkpt lat="46.86573" lon="-1.00609">
        <ele>113.7</ele>
        <time>2025-01-17T16:04:36.532Z</time>
      </trkpt>
      <trkpt lat="46.86556" lon="-1.00597">
        <ele>114.5</ele>
        <time>2025-01-17T16:04:41.598Z</time>
      </trkpt>
      <trkpt lat="46.86523" lon="-1.00577">
        <ele>114.8</ele>
        <time>2025-01-17T16:04:48.161Z</time>
      </trkpt>
      <trkpt lat="46.86488" lon="-1.00561">
        <ele>117.4</ele>
        <time>2025-01-17T16:05:02.438Z</time>
      </trkpt>
      <trkpt lat="46.86462" lon="-1.00555">
        <ele>117.4</ele>
        <time>2025-01-17T16:05:06.892Z</time>
      </trkpt>
      <trkpt lat="46.86436" lon="-1.00556">
        <ele>118.3</ele>
        <time>2025-01-17T16:05:13.250Z</time>
      </trkpt>
    </trkseg>
  </trk>
</gpx>